sensor_id;sensor_type;location;lat;lon;timestamp;pressure;altitude;pressure_sealevel;temperature;humidity
25947;BME280;13745;51.470;9.894;2022-10-01T00:01:38;98769.56;;;12.49;54.67
25947;BME280;13745;51.470;9.894;2022-10-01T00:04:24;98757.91;;;12.48;54.64
25947;BME280;13745;51.470;9.894;2022-10-01T00:07:10;98752.47;;;12.48;54.87
25947;BME280;13745;51.470;9.894;2022-10-01T00:09:58;98753.28;;;12.49;54.50
25947;BME280;13745;51.470;9.894;2022-10-01T00:12:47;98733.94;;;12.50;54.54
25947;BME280;13745;51.470;9.894;2022-10-01T00:15:38;98739.38;;;12.50;55.00
25947;BME280;13745;51.470;9.894;2022-10-01T00:18:23;98741.75;;;12.52;54.65
25947;BME280;13745;51.470;9.894;2022-10-01T00:21:11;98736.66;;;12.50;54.57
25947;BME280;13745;51.470;9.894;2022-10-01T00:23:59;98736.66;;;12.50;54.70
25947;BME280;13745;51.470;9.894;2022-10-01T00:26:46;98724.38;;;12.53;54.72
25947;BME280;13745;51.470;9.894;2022-10-01T00:29:32;98715.25;;;12.49;54.93
25947;BME280;13745;51.470;9.894;2022-10-01T00:32:20;98717.50;;;12.47;55.09
25947;BME280;13745;51.470;9.894;2022-10-01T00:35:06;98710.47;;;12.46;54.85
25947;BME280;13745;51.470;9.894;2022-10-01T00:37:53;98716.72;;;12.46;55.30
25947;BME280;13745;51.470;9.894;2022-10-01T00:40:38;98713.38;;;12.41;55.22
25947;BME280;13745;51.470;9.894;2022-10-01T00:43:26;98710.81;;;12.36;55.73
25947;BME280;13745;51.470;9.894;2022-10-01T00:46:15;98710.16;;;12.39;55.50
25947;BME280;13745;51.470;9.894;2022-10-01T00:49:08;98709.22;;;12.35;55.90
25947;BME280;13745;51.470;9.894;2022-10-01T00:51:57;98708.56;;;12.38;55.39
25947;BME280;13745;51.470;9.894;2022-10-01T00:54:46;98692.28;;;12.38;55.50
25947;BME280;13745;51.470;9.894;2022-10-01T00:57:33;98697.72;;;12.38;55.42
25947;BME280;13745;51.470;9.894;2022-10-01T01:00:20;98681.44;;;12.38;55.54
25947;BME280;13745;51.470;9.894;2022-10-01T01:03:06;98680.50;;;12.34;55.72
25947;BME280;13745;51.470;9.894;2022-10-01T01:05:55;98676.97;;;12.33;55.79
25947;BME280;13745;51.470;9.894;2022-10-01T01:08:41;98675.06;;;12.34;56.00
25947;BME280;13745;51.470;9.894;2022-10-01T01:11:31;98675.19;;;12.37;56.20
25947;BME280;13745;51.470;9.894;2022-10-01T01:14:25;98675.06;;;12.42;56.09
25947;BME280;13745;51.470;9.894;2022-10-01T01:17:18;98675.66;;;12.48;56.05
25947;BME280;13745;51.470;9.894;2022-10-01T01:20:18;98667.19;;;12.49;55.64
25947;BME280;13745;51.470;9.894;2022-10-01T01:23:24;98674.22;;;12.50;55.80
25947;BME280;13745;51.470;9.894;2022-10-01T01:26:20;98674.38;;;12.53;55.41
25947;BME280;13745;51.470;9.894;2022-10-01T01:29:14;98658.56;;;12.55;55.52
25947;BME280;13745;51.470;9.894;2022-10-01T01:32:09;98655.84;;;12.55;55.68
25947;BME280;13745;51.470;9.894;2022-10-01T01:34:58;98647.38;;;12.57;55.77
25947;BME280;13745;51.470;9.894;2022-10-01T01:37:49;98636.50;;;12.57;55.52
25947;BME280;13745;51.470;9.894;2022-10-01T01:40:38;98637.31;;;12.57;55.69
25947;BME280;13745;51.470;9.894;2022-10-01T01:43:28;98633.47;;;12.58;55.65
25947;BME280;13745;51.470;9.894;2022-10-01T01:46:18;98620.69;;;12.59;55.96
25947;BME280;13745;51.470;9.894;2022-10-01T01:49:04;98621.00;;;12.57;55.76
25947;BME280;13745;51.470;9.894;2022-10-01T01:51:55;98619.41;;;12.56;56.15
25947;BME280;13745;51.470;9.894;2022-10-01T01:54:44;98617.38;;;12.53;56.21
25947;BME280;13745;51.470;9.894;2022-10-01T01:57:31;98615.44;;;12.54;56.01
25947;BME280;13745;51.470;9.894;2022-10-01T02:00:17;98610.00;;;12.54;55.96
25947;BME280;13745;51.470;9.894;2022-10-01T02:03:04;98610.81;;;12.54;55.86
25947;BME280;13745;51.470;9.894;2022-10-01T02:05:57;98609.22;;;12.53;55.81
25947;BME280;13745;51.470;9.894;2022-10-01T02:08:48;98611.94;;;12.53;56.31
25947;BME280;13745;51.470;9.894;2022-10-01T02:11:39;98596.78;;;12.53;55.75
25947;BME280;13745;51.470;9.894;2022-10-01T02:14:34;98585.91;;;12.53;56.13
25947;BME280;13745;51.470;9.894;2022-10-01T02:17:27;98591.34;;;12.53;56.21
25947;BME280;13745;51.470;9.894;2022-10-01T02:20:25;98594.06;;;12.53;55.83
25947;BME280;13745;51.470;9.894;2022-10-01T02:23:14;98595.16;;;12.52;56.25
25947;BME280;13745;51.470;9.894;2022-10-01T02:26:06;98598.34;;;12.53;56.07
25947;BME280;13745;51.470;9.894;2022-10-01T02:28:58;98597.56;;;12.53;55.74
25947;BME280;13745;51.470;9.894;2022-10-01T02:31:47;98590.03;;;12.50;56.01
25947;BME280;13745;51.470;9.894;2022-10-01T02:34:37;98591.16;;;12.49;56.35
25947;BME280;13745;51.470;9.894;2022-10-01T02:37:25;98590.53;;;12.52;56.21
25947;BME280;13745;51.470;9.894;2022-10-01T02:40:14;98585.91;;;12.53;55.95
25947;BME280;13745;51.470;9.894;2022-10-01T02:43:04;98593.41;;;12.55;56.09
25947;BME280;13745;51.470;9.894;2022-10-01T02:45:55;98577.56;;;12.57;56.10
25947;BME280;13745;51.470;9.894;2022-10-01T02:48:43;98578.03;;;12.59;55.88
25947;BME280;13745;51.470;9.894;2022-10-01T02:51:33;98580.63;;;12.56;56.07
25947;BME280;13745;51.470;9.894;2022-10-01T02:54:26;98567.19;;;12.51;56.37
25947;BME280;13745;51.470;9.894;2022-10-01T02:57:14;98571.22;;;12.53;56.30
25947;BME280;13745;51.470;9.894;2022-10-01T03:00:14;98560.03;;;12.55;56.41
25947;BME280;13745;51.470;9.894;2022-10-01T03:03:00;98547.91;;;12.53;56.65
25947;BME280;13745;51.470;9.894;2022-10-01T03:05:46;98540.53;;;12.53;56.36
25947;BME280;13745;51.470;9.894;2022-10-01T03:08:32;98545.47;;;12.51;56.64
25947;BME280;13745;51.470;9.894;2022-10-01T03:11:19;98536.84;;;12.57;56.62
25947;BME280;13745;51.470;9.894;2022-10-01T03:14:05;98523.91;;;12.54;56.59
25947;BME280;13745;51.470;9.894;2022-10-01T03:16:52;98521.69;;;12.56;56.30
25947;BME280;13745;51.470;9.894;2022-10-01T03:19:38;98510.47;;;12.58;56.69
25947;BME280;13745;51.470;9.894;2022-10-01T03:22:24;98503.91;;;12.59;56.55
25947;BME280;13745;51.470;9.894;2022-10-01T03:25:10;98493.53;;;12.61;56.48
25947;BME280;13745;51.470;9.894;2022-10-01T03:27:57;98489.34;;;12.63;56.51
25947;BME280;13745;51.470;9.894;2022-10-01T03:30:43;98481.69;;;12.65;56.42
25947;BME280;13745;51.470;9.894;2022-10-01T03:33:29;98482.66;;;12.69;56.46
25947;BME280;13745;51.470;9.894;2022-10-01T03:36:15;98482.66;;;12.69;56.45
25947;BME280;13745;51.470;9.894;2022-10-01T03:39:01;98464.44;;;12.70;56.01
25947;BME280;13745;51.470;9.894;2022-10-01T03:41:47;98481.97;;;12.72;56.24
25947;BME280;13745;51.470;9.894;2022-10-01T03:44:34;98475.09;;;12.75;56.15
25947;BME280;13745;51.470;9.894;2022-10-01T03:47:20;98464.38;;;12.78;56.12
25947;BME280;13745;51.470;9.894;2022-10-01T03:50:08;98459.75;;;12.78;56.21
25947;BME280;13745;51.470;9.894;2022-10-01T03:52:54;98465.31;;;12.82;56.15
25947;BME280;13745;51.470;9.894;2022-10-01T03:55:40;98462.59;;;12.82;56.43
25947;BME280;13745;51.470;9.894;2022-10-01T03:58:26;98457.63;;;12.84;56.11
25947;BME280;13745;51.470;9.894;2022-10-01T04:01:14;98446.06;;;12.87;56.03
25947;BME280;13745;51.470;9.894;2022-10-01T04:04:00;98457.09;;;12.90;56.18
25947;BME280;13745;51.470;9.894;2022-10-01T04:06:47;98458.81;;;12.95;56.14
25947;BME280;13745;51.470;9.894;2022-10-01T04:09:33;98466.28;;;12.98;55.94
25947;BME280;13745;51.470;9.894;2022-10-01T04:12:20;98457.47;;;13.00;56.16
25947;BME280;13745;51.470;9.894;2022-10-01T04:15:07;98460.66;;;13.02;56.07
25947;BME280;13745;51.470;9.894;2022-10-01T04:17:55;98465.91;;;13.07;55.82
25947;BME280;13745;51.470;9.894;2022-10-01T04:20:41;98471.78;;;13.09;55.77
25947;BME280;13745;51.470;9.894;2022-10-01T04:23:27;98468.06;;;13.14;56.04
25947;BME280;13745;51.470;9.894;2022-10-01T04:26:13;98475.56;;;13.17;56.07
25947;BME280;13745;51.470;9.894;2022-10-01T04:28:59;98472.97;;;13.20;55.82
25947;BME280;13745;51.470;9.894;2022-10-01T04:31:44;98472.31;;;13.23;55.96
25947;BME280;13745;51.470;9.894;2022-10-01T04:34:32;98471.63;;;13.26;55.86
25947;BME280;13745;51.470;9.894;2022-10-01T04:37:31;98457.72;;;13.27;55.70
25947;BME280;13745;51.470;9.894;2022-10-01T04:40:17;98463.28;;;13.31;55.83
25947;BME280;13745;51.470;9.894;2022-10-01T04:43:04;98461.03;;;13.33;55.89
25947;BME280;13745;51.470;9.894;2022-10-01T04:45:51;98463.28;;;13.31;56.11
25947;BME280;13745;51.470;9.894;2022-10-01T04:48:37;98460.91;;;13.29;56.26
25947;BME280;13745;51.470;9.894;2022-10-01T04:51:24;98456.25;;;13.30;56.62
25947;BME280;13745;51.470;9.894;2022-10-01T04:54:10;98455.81;;;13.28;56.80
25947;BME280;13745;51.470;9.894;2022-10-01T04:56:56;98455.31;;;13.26;56.98
25947;BME280;13745;51.470;9.894;2022-10-01T04:59:42;98459.16;;;13.25;56.98
25947;BME280;13745;51.470;9.894;2022-10-01T05:02:27;98447.72;;;13.20;57.58
25947;BME280;13745;51.470;9.894;2022-10-01T05:05:14;98445.00;;;13.20;57.67
25947;BME280;13745;51.470;9.894;2022-10-01T05:08:02;98437.19;;;13.18;57.81
25947;BME280;13745;51.470;9.894;2022-10-01T05:10:47;98435.13;;;13.15;58.13
25947;BME280;13745;51.470;9.894;2022-10-01T05:13:33;98420.59;;;13.11;58.10
25947;BME280;13745;51.470;9.894;2022-10-01T05:16:19;98406.31;;;13.02;58.60
25947;BME280;13745;51.470;9.894;2022-10-01T05:19:05;98400.75;;;12.99;58.68
25947;BME280;13745;51.470;9.894;2022-10-01T05:21:51;98402.22;;;12.97;59.14
25947;BME280;13745;51.470;9.894;2022-10-01T05:24:39;98384.78;;;12.98;59.22
25947;BME280;13745;51.470;9.894;2022-10-01T05:27:25;98392.00;;;12.94;59.15
25947;BME280;13745;51.470;9.894;2022-10-01T05:30:13;98393.59;;;12.95;59.54
25947;BME280;13745;51.470;9.894;2022-10-01T05:33:05;98383.41;;;12.92;59.78
25947;BME280;13745;51.470;9.894;2022-10-01T05:35:51;98385.66;;;12.90;59.53
25947;BME280;13745;51.470;9.894;2022-10-01T05:38:37;98384.06;;;12.89;59.65
25947;BME280;13745;51.470;9.894;2022-10-01T05:41:24;98371.47;;;12.84;59.90
25947;BME280;13745;51.470;9.894;2022-10-01T05:44:10;98370.69;;;12.84;60.24
25947;BME280;13745;51.470;9.894;2022-10-01T05:46:56;98355.06;;;12.81;60.62
25947;BME280;13745;51.470;9.894;2022-10-01T05:49:42;98365.31;;;12.76;60.78
25947;BME280;13745;51.470;9.894;2022-10-01T05:52:28;98365.66;;;12.74;61.04
25947;BME280;13745;51.470;9.894;2022-10-01T05:55:14;98348.44;;;12.70;61.08
25947;BME280;13745;51.470;9.894;2022-10-01T05:58:05;98343.66;;;12.67;61.60
25947;BME280;13745;51.470;9.894;2022-10-01T06:00:54;98330.09;;;12.67;61.22
25947;BME280;13745;51.470;9.894;2022-10-01T06:03:40;98315.25;;;12.65;61.61
25947;BME280;13745;51.470;9.894;2022-10-01T06:06:27;98300.84;;;12.64;61.92
25947;BME280;13745;51.470;9.894;2022-10-01T06:09:12;98284.75;;;12.68;61.52
25947;BME280;13745;51.470;9.894;2022-10-01T06:11:59;98279.63;;;12.66;61.48
25947;BME280;13745;51.470;9.894;2022-10-01T06:14:46;98286.19;;;12.65;61.92
25947;BME280;13745;51.470;9.894;2022-10-01T06:17:32;98263.31;;;12.66;62.11
25947;BME280;13745;51.470;9.894;2022-10-01T06:20:18;98246.88;;;12.63;62.06
25947;BME280;13745;51.470;9.894;2022-10-01T06:23:06;98244.97;;;12.63;62.20
25947;BME280;13745;51.470;9.894;2022-10-01T06:25:54;98244.31;;;12.66;61.97
25947;BME280;13745;51.470;9.894;2022-10-01T06:28:40;98232.13;;;12.72;61.99
25947;BME280;13745;51.470;9.894;2022-10-01T06:31:28;98241.53;;;12.75;62.00
25947;BME280;13745;51.470;9.894;2022-10-01T06:34:13;98232.91;;;12.73;62.36
25947;BME280;13745;51.470;9.894;2022-10-01T06:36:59;98228.28;;;12.73;62.10
25947;BME280;13745;51.470;9.894;2022-10-01T06:39:45;98231.78;;;12.74;62.55
25947;BME280;13745;51.470;9.894;2022-10-01T06:42:31;98231.44;;;12.75;62.60
25947;BME280;13745;51.470;9.894;2022-10-01T06:45:17;98235.63;;;12.73;62.82
25947;BME280;13745;51.470;9.894;2022-10-01T06:48:04;98232.13;;;12.72;62.57
25947;BME280;13745;51.470;9.894;2022-10-01T06:50:50;98238.81;;;12.75;62.92
25947;BME280;13745;51.470;9.894;2022-10-01T06:53:36;98246.16;;;12.74;63.08
25947;BME280;13745;51.470;9.894;2022-10-01T06:56:22;98261.78;;;12.77;63.11
25947;BME280;13745;51.470;9.894;2022-10-01T06:59:08;98265.78;;;12.79;63.16
25947;BME280;13745;51.470;9.894;2022-10-01T07:01:54;98272.44;;;12.82;63.19
25947;BME280;13745;51.470;9.894;2022-10-01T07:04:41;98267.91;;;12.86;63.08
25947;BME280;13745;51.470;9.894;2022-10-01T07:07:28;98277.00;;;12.90;63.17
25947;BME280;13745;51.470;9.894;2022-10-01T07:10:15;98293.41;;;12.93;63.19
25947;BME280;13745;51.470;9.894;2022-10-01T07:13:07;98304.75;;;12.95;63.17
25947;BME280;13745;51.470;9.894;2022-10-01T07:15:53;98294.00;;;12.98;63.41
25947;BME280;13745;51.470;9.894;2022-10-01T07:18:39;98279.72;;;13.01;63.25
25947;BME280;13745;51.470;9.894;2022-10-01T07:21:26;98263.41;;;13.01;63.35
25947;BME280;13745;51.470;9.894;2022-10-01T07:24:12;98264.34;;;13.05;63.21
25947;BME280;13745;51.470;9.894;2022-10-01T07:26:58;98268.31;;;13.08;63.20
25947;BME280;13745;51.470;9.894;2022-10-01T07:29:44;98282.34;;;13.10;63.54
25947;BME280;13745;51.470;9.894;2022-10-01T07:32:30;98272.97;;;13.07;63.53
25947;BME280;13745;51.470;9.894;2022-10-01T07:35:17;98253.94;;;13.07;63.74
25947;BME280;13745;51.470;9.894;2022-10-01T07:38:05;98246.25;;;13.09;63.56
25947;BME280;13745;51.470;9.894;2022-10-01T07:40:52;98230.38;;;13.11;63.81
25947;BME280;13745;51.470;9.894;2022-10-01T07:43:38;98234.69;;;13.12;63.76
25947;BME280;13745;51.470;9.894;2022-10-01T07:46:25;98244.91;;;13.15;63.83
25947;BME280;13745;51.470;9.894;2022-10-01T07:49:12;98250.09;;;13.20;63.70
25947;BME280;13745;51.470;9.894;2022-10-01T07:51:58;98256.44;;;13.24;63.51
25947;BME280;13745;51.470;9.894;2022-10-01T07:54:45;98250.66;;;13.25;63.85
25947;BME280;13745;51.470;9.894;2022-10-01T07:57:31;98255.09;;;13.30;63.69
25947;BME280;13745;51.470;9.894;2022-10-01T08:00:18;98252.84;;;13.32;63.83
25947;BME280;13745;51.470;9.894;2022-10-01T08:03:04;98269.59;;;13.34;63.93
25947;BME280;13745;51.470;9.894;2022-10-01T08:05:50;98258.38;;;13.35;63.92
25947;BME280;13745;51.470;9.894;2022-10-01T08:08:38;98273.22;;;13.38;63.76
25947;BME280;13745;51.470;9.894;2022-10-01T08:11:25;98263.81;;;13.35;63.91
25947;BME280;13745;51.470;9.894;2022-10-01T08:14:11;98260.75;;;13.37;63.92
25947;BME280;13745;51.470;9.894;2022-10-01T08:16:58;98259.16;;;13.36;63.83
25947;BME280;13745;51.470;9.894;2022-10-01T08:19:44;98276.50;;;13.31;64.19
25947;BME280;13745;51.470;9.894;2022-10-01T08:22:30;98286.47;;;13.27;64.38
25947;BME280;13745;51.470;9.894;2022-10-01T08:25:15;98275.91;;;13.26;64.67
25947;BME280;13745;51.470;9.894;2022-10-01T08:28:04;98273.19;;;13.26;64.63
25947;BME280;13745;51.470;9.894;2022-10-01T08:30:50;98276.50;;;13.31;64.46
25947;BME280;13745;51.470;9.894;2022-10-01T08:33:36;98287.84;;;13.33;64.44
25947;BME280;13745;51.470;9.894;2022-10-01T08:36:23;98281.59;;;13.33;64.54
25947;BME280;13745;51.470;9.894;2022-10-01T08:39:10;98285.66;;;13.39;64.47
25947;BME280;13745;51.470;9.894;2022-10-01T08:42:00;98282.63;;;13.40;64.62
25947;BME280;13745;51.470;9.894;2022-10-01T08:44:51;98287.38;;;13.43;64.54
25947;BME280;13745;51.470;9.894;2022-10-01T08:47:39;98292.25;;;13.49;64.42
25947;BME280;13745;51.470;9.894;2022-10-01T08:50:36;98285.47;;;13.55;64.40
25947;BME280;13745;51.470;9.894;2022-10-01T08:53:30;98283.19;;;13.57;64.59
25947;BME280;13745;51.470;9.894;2022-10-01T08:56:22;98287.94;;;13.60;64.72
25947;BME280;13745;51.470;9.894;2022-10-01T08:59:16;98282.16;;;13.62;64.48
25947;BME280;13745;51.470;9.894;2022-10-01T09:02:20;98278.75;;;13.65;64.50
25947;BME280;13745;51.470;9.894;2022-10-01T09:05:21;98283.19;;;13.69;64.41
25947;BME280;13745;51.470;9.894;2022-10-01T09:08:18;98296.44;;;13.70;64.46
25947;BME280;13745;51.470;9.894;2022-10-01T09:11:12;98298.72;;;13.68;64.58
25947;BME280;13745;51.470;9.894;2022-10-01T09:14:11;98287.94;;;13.72;64.57
25947;BME280;13745;51.470;9.894;2022-10-01T09:17:04;98274.25;;;13.80;64.37
25947;BME280;13745;51.470;9.894;2022-10-01T09:20:02;98279.00;;;13.95;64.24
25947;BME280;13745;51.470;9.894;2022-10-01T09:23:00;98280.59;;;14.34;63.68
25947;BME280;13745;51.470;9.894;2022-10-01T09:25:49;98277.50;;;14.75;62.70
25947;BME280;13745;51.470;9.894;2022-10-01T09:28:37;98278.81;;;14.65;62.96
25947;BME280;13745;51.470;9.894;2022-10-01T09:31:25;98284.94;;;14.62;63.07
25947;BME280;13745;51.470;9.894;2022-10-01T09:34:15;98293.34;;;14.57;63.21
25947;BME280;13745;51.470;9.894;2022-10-01T09:37:08;98290.78;;;14.49;63.22
25947;BME280;13745;51.470;9.894;2022-10-01T09:40:12;98285.00;;;14.39;63.58
25947;BME280;13745;51.470;9.894;2022-10-01T09:43:00;98280.47;;;14.43;63.40
25947;BME280;13745;51.470;9.894;2022-10-01T09:45:48;98284.00;;;14.43;63.45
25947;BME280;13745;51.470;9.894;2022-10-01T09:48:39;98287.59;;;14.47;63.33
25947;BME280;13745;51.470;9.894;2022-10-01T09:51:29;98284.53;;;14.49;63.41
25947;BME280;13745;51.470;9.894;2022-10-01T09:54:22;98286.13;;;14.50;63.24
25947;BME280;13745;51.470;9.894;2022-10-01T09:57:14;98289.16;;;14.60;63.14
25947;BME280;13745;51.470;9.894;2022-10-01T10:00:04;98269.19;;;14.83;62.79
25947;BME280;13745;51.470;9.894;2022-10-01T10:02:54;98282.50;;;15.00;62.42
25947;BME280;13745;51.470;9.894;2022-10-01T10:05:42;98276.91;;;15.08;62.27
25947;BME280;13745;51.470;9.894;2022-10-01T10:08:34;98282.28;;;15.20;61.87
25947;BME280;13745;51.470;9.894;2022-10-01T10:11:24;98279.56;;;15.35;61.65
25947;BME280;13745;51.470;9.894;2022-10-01T10:14:16;98283.78;;;15.63;61.39
25947;BME280;13745;51.470;9.894;2022-10-01T10:17:04;98283.16;;;15.69;61.03
25947;BME280;13745;51.470;9.894;2022-10-01T10:19:51;98297.13;;;15.98;60.91
25947;BME280;13745;51.470;9.894;2022-10-01T10:22:37;98297.31;;;17.13;58.68
25947;BME280;13745;51.470;9.894;2022-10-01T10:25:23;98299.59;;;17.51;57.70
25947;BME280;13745;51.470;9.894;2022-10-01T10:28:18;98299.03;;;17.21;58.06
25947;BME280;13745;51.470;9.894;2022-10-01T10:31:09;98275.50;;;17.16;58.21
25947;BME280;13745;51.470;9.894;2022-10-01T10:34:04;98304.03;;;17.37;57.91
25947;BME280;13745;51.470;9.894;2022-10-01T10:36:56;98295.63;;;17.27;58.11
25947;BME280;13745;51.470;9.894;2022-10-01T10:39:46;98297.75;;;17.37;57.89
25947;BME280;13745;51.470;9.894;2022-10-01T10:42:34;98302.00;;;17.12;58.25
25947;BME280;13745;51.470;9.894;2022-10-01T10:45:29;98303.03;;;17.04;58.48
25947;BME280;13745;51.470;9.894;2022-10-01T10:48:16;98312.78;;;16.68;59.00
25947;BME280;13745;51.470;9.894;2022-10-01T10:51:04;98312.00;;;16.68;59.22
25947;BME280;13745;51.470;9.894;2022-10-01T10:53:50;98306.88;;;16.85;58.98
25947;BME280;13745;51.470;9.894;2022-10-01T10:56:37;98326.00;;;17.41;58.06
25947;BME280;13745;51.470;9.894;2022-10-01T10:59:23;98322.50;;;19.57;53.85
25947;BME280;13745;51.470;9.894;2022-10-01T11:02:15;98334.00;;;20.12;52.75
25947;BME280;13745;51.470;9.894;2022-10-01T11:05:16;98315.94;;;20.67;51.65
25947;BME280;13745;51.470;9.894;2022-10-01T11:08:05;98324.09;;;20.01;52.59
25947;BME280;13745;51.470;9.894;2022-10-01T11:11:03;98328.09;;;19.29;53.91
25947;BME280;13745;51.470;9.894;2022-10-01T11:14:05;98331.31;;;18.76;54.96
25947;BME280;13745;51.470;9.894;2022-10-01T11:17:07;98338.50;;;18.30;55.54
25947;BME280;13745;51.470;9.894;2022-10-01T11:20:12;98360.16;;;17.91;56.05
25947;BME280;13745;51.470;9.894;2022-10-01T11:23:15;98329.28;;;17.49;56.67
25947;BME280;13745;51.470;9.894;2022-10-01T11:26:16;98327.97;;;18.89;54.48
25947;BME280;13745;51.470;9.894;2022-10-01T11:29:12;98337.13;;;20.64;51.14
25947;BME280;13745;51.470;9.894;2022-10-01T11:32:12;98343.53;;;20.28;51.69
25947;BME280;13745;51.470;9.894;2022-10-01T11:35:13;98342.22;;;20.05;52.20
25947;BME280;13745;51.470;9.894;2022-10-01T11:41:19;98346.56;;;20.63;51.00
25947;BME280;13745;51.470;9.894;2022-10-01T11:44:12;98344.13;;;20.51;51.19
25947;BME280;13745;51.470;9.894;2022-10-01T11:47:02;98356.13;;;20.86;50.43
25947;BME280;13745;51.470;9.894;2022-10-01T11:49:52;98351.53;;;21.13;49.90
25947;BME280;13745;51.470;9.894;2022-10-01T11:52:46;98351.63;;;23.29;46.06
25947;BME280;13745;51.470;9.894;2022-10-01T11:55:36;98338.66;;;23.86;45.53
25947;BME280;13745;51.470;9.894;2022-10-01T11:58:47;98343.84;;;24.34;44.61
25947;BME280;13745;51.470;9.894;2022-10-01T12:01:41;98343.22;;;24.17;44.47
25947;BME280;13745;51.470;9.894;2022-10-01T12:04:30;98362.88;;;24.26;43.90
25947;BME280;13745;51.470;9.894;2022-10-01T12:07:22;98363.19;;;23.81;44.86
25947;BME280;13745;51.470;9.894;2022-10-01T12:10:19;98361.22;;;22.84;46.28
25947;BME280;13745;51.470;9.894;2022-10-01T12:13:25;98351.25;;;23.94;44.41
25947;BME280;13745;51.470;9.894;2022-10-01T12:16:17;98355.72;;;25.47;41.76
25947;BME280;13745;51.470;9.894;2022-10-01T12:19:12;98357.00;;;26.46;40.18
25947;BME280;13745;51.470;9.894;2022-10-01T12:22:04;98347.84;;;26.23;40.52
25947;BME280;13745;51.470;9.894;2022-10-01T12:24:54;98349.56;;;26.17;41.37
25947;BME280;13745;51.470;9.894;2022-10-01T12:27:50;98347.38;;;24.81;42.76
25947;BME280;13745;51.470;9.894;2022-10-01T12:30:44;98362.34;;;24.87;42.58
25947;BME280;13745;51.470;9.894;2022-10-01T12:33:44;98355.38;;;24.72;42.64
25947;BME280;13745;51.470;9.894;2022-10-01T12:36:42;98355.91;;;24.11;43.40
25947;BME280;13745;51.470;9.894;2022-10-01T12:39:38;98351.72;;;23.05;44.91
25947;BME280;13745;51.470;9.894;2022-10-01T12:42:48;98359.66;;;21.94;46.54
25947;BME280;13745;51.470;9.894;2022-10-01T12:45:44;98366.41;;;20.92;48.15
25947;BME280;13745;51.470;9.894;2022-10-01T12:48:38;98362.78;;;20.28;49.16
25947;BME280;13745;51.470;9.894;2022-10-01T12:51:37;98361.63;;;19.83;49.98
25947;BME280;13745;51.470;9.894;2022-10-01T12:54:40;98354.25;;;19.55;50.43
25947;BME280;13745;51.470;9.894;2022-10-01T12:57:38;98361.09;;;19.35;50.77
25947;BME280;13745;51.470;9.894;2022-10-01T13:00:29;98365.59;;;19.18;51.13
25947;BME280;13745;51.470;9.894;2022-10-01T13:03:27;98361.34;;;19.56;50.83
25947;BME280;13745;51.470;9.894;2022-10-01T13:06:26;98355.28;;;20.71;49.03
25947;BME280;13745;51.470;9.894;2022-10-01T13:09:23;98376.19;;;20.89;48.54
25947;BME280;13745;51.470;9.894;2022-10-01T13:12:28;98360.38;;;21.63;47.53
25947;BME280;13745;51.470;9.894;2022-10-01T13:15:22;98363.41;;;21.24;48.17
25947;BME280;13745;51.470;9.894;2022-10-01T13:18:22;98364.13;;;21.14;48.38
25947;BME280;13745;51.470;9.894;2022-10-01T13:21:18;98361.06;;;21.26;48.22
25947;BME280;13745;51.470;9.894;2022-10-01T13:24:11;98367.00;;;21.32;48.11
25947;BME280;13745;51.470;9.894;2022-10-01T13:27:03;98359.31;;;22.05;47.13
25947;BME280;13745;51.470;9.894;2022-10-01T13:29:54;98365.22;;;22.21;46.97
25947;BME280;13745;51.470;9.894;2022-10-01T13:32:49;98368.34;;;21.99;47.24
25947;BME280;13745;51.470;9.894;2022-10-01T13:35:39;98377.84;;;22.43;46.50
25947;BME280;13745;51.470;9.894;2022-10-01T13:38:27;98380.19;;;22.54;45.97
25947;BME280;13745;51.470;9.894;2022-10-01T13:41:19;98389.66;;;22.33;46.34
25947;BME280;13745;51.470;9.894;2022-10-01T13:44:20;98393.19;;;22.09;46.72
25947;BME280;13745;51.470;9.894;2022-10-01T13:47:07;98399.47;;;22.00;46.87
25947;BME280;13745;51.470;9.894;2022-10-01T13:49:58;98401.38;;;21.68;47.58
25947;BME280;13745;51.470;9.894;2022-10-01T13:52:48;98400.09;;;21.42;47.84
25947;BME280;13745;51.470;9.894;2022-10-01T13:55:40;98403.59;;;21.32;48.06
25947;BME280;13745;51.470;9.894;2022-10-01T13:58:32;98409.00;;;21.18;48.16
25947;BME280;13745;51.470;9.894;2022-10-01T14:01:27;98406.53;;;20.93;48.58
25947;BME280;13745;51.470;9.894;2022-10-01T14:04:17;98402.63;;;21.01;48.48
25947;BME280;13745;51.470;9.894;2022-10-01T14:07:13;98402.63;;;21.01;48.49
25947;BME280;13745;51.470;9.894;2022-10-01T14:10:01;98400.97;;;20.86;48.61
25947;BME280;13745;51.470;9.894;2022-10-01T14:12:47;98412.75;;;20.83;48.87
25947;BME280;13745;51.470;9.894;2022-10-01T14:15:53;98413.66;;;20.48;49.65
25947;BME280;13745;51.470;9.894;2022-10-01T14:18:47;98417.50;;;19.97;50.21
25947;BME280;13745;51.470;9.894;2022-10-01T14:21:42;98415.59;;;19.66;50.92
25947;BME280;13745;51.470;9.894;2022-10-01T14:24:42;98412.25;;;19.50;51.15
25947;BME280;13745;51.470;9.894;2022-10-01T14:27:38;98414.38;;;19.31;51.61
25947;BME280;13745;51.470;9.894;2022-10-01T14:30:32;98423.56;;;19.13;52.12
25947;BME280;13745;51.470;9.894;2022-10-01T14:33:35;98425.59;;;18.90;52.65
25947;BME280;13745;51.470;9.894;2022-10-01T14:36:29;98430.63;;;18.63;53.23
25947;BME280;13745;51.470;9.894;2022-10-01T14:39:19;98447.50;;;18.39;53.87
25947;BME280;13745;51.470;9.894;2022-10-01T14:42:09;98456.59;;;18.21;54.55
25947;BME280;13745;51.470;9.894;2022-10-01T14:44:58;98457.75;;;17.98;55.08
25947;BME280;13745;51.470;9.894;2022-10-01T14:47:44;98460.03;;;17.78;55.79
25947;BME280;13745;51.470;9.894;2022-10-01T14:50:34;98470.19;;;17.55;56.53
25947;BME280;13745;51.470;9.894;2022-10-01T14:53:24;98465.84;;;17.36;57.17
25947;BME280;13745;51.470;9.894;2022-10-01T14:56:11;98466.22;;;17.16;57.93
25947;BME280;13745;51.470;9.894;2022-10-01T14:59:00;98452.31;;;17.05;58.21
25947;BME280;13745;51.470;9.894;2022-10-01T15:01:58;98451.09;;;17.03;58.58
25947;BME280;13745;51.470;9.894;2022-10-01T15:04:45;98456.75;;;17.13;58.50